sensor_id;sensor_type;location;lat;lon;timestamp;pressure;altitude;pressure_sealevel;temperature;humidity
64602;BME280;51013;42.630;23.192;2022-12-29T04:50:59;92922.50;;;2.31;95.53
64602;BME280;51013;42.630;23.192;2022-12-29T04:53:32;92793.81;;;1.37;95.28
64602;BME280;51013;42.630;23.192;2022-12-29T04:55:59;92984.03;;;2.60;95.20
64602;BME280;51013;42.630;23.192;2022-12-29T04:58:51;92931.78;;;2.37;95.29
64602;BME280;51013;42.630;23.192;2022-12-29T05:01:39;92793.03;;;1.37;94.64
64602;BME280;51013;42.630;23.192;2022-12-29T05:12:15;93166.00;;;3.91;94.80
64602;BME280;51013;42.630;23.192;2022-12-29T05:14:43;93010.22;;;2.93;94.42
64602;BME280;51013;42.630;23.192;2022-12-29T05:17:10;93024.75;;;2.94;94.59
64602;BME280;51013;42.630;23.192;2022-12-29T05:19:44;93173.56;;;3.87;94.94
64602;BME280;51013;42.630;23.192;2022-12-29T05:27:56;93151.59;;;3.74;95.29
64602;BME280;51013;42.630;23.192;2022-12-29T05:30:49;93012.97;;;2.72;95.50
64602;BME280;51013;42.630;23.192;2022-12-29T16:47:43;92999.63;;;6.20;81.25
64602;BME280;51013;42.630;23.192;2022-12-29T16:56:48;92741.63;;;4.18;82.24
64602;BME280;51013;42.630;23.192;2022-12-29T16:59:33;92773.72;;;4.41;82.42
64602;BME280;51013;42.630;23.192;2022-12-29T17:02:24;92778.38;;;4.44;82.60
64602;BME280;51013;42.630;23.192;2022-12-29T17:05:12;92689.13;;;3.69;82.54
64602;BME280;51013;42.630;23.192;2022-12-29T17:07:44;92739.38;;;4.11;82.83
64602;BME280;51013;42.630;23.192;2022-12-29T17:10:29;93110.63;;;6.40;83.75
64602;BME280;51013;42.630;23.192;2022-12-29T17:13:10;92941.19;;;5.25;83.42
64602;BME280;51013;42.630;23.192;2022-12-29T17:15:58;92890.81;;;5.01;84.06
64602;BME280;51013;42.630;23.192;2022-12-29T17:18:25;92811.59;;;4.47;84.04
64602;BME280;51013;42.630;23.192;2022-12-29T17:20:54;93104.84;;;6.44;84.38
64602;BME280;51013;42.630;23.192;2022-12-29T17:23:39;92744.22;;;4.32;87.13
64602;BME280;51013;42.630;23.192;2022-12-29T17:26:07;92751.34;;;4.26;83.50
64602;BME280;51013;42.630;23.192;2022-12-29T17:28:35;93120.00;;;6.69;84.26
64602;BME280;51013;42.630;23.192;2022-12-29T17:31:03;93044.16;;;6.38;83.67
64602;BME280;51013;42.630;23.192;2022-12-29T17:33:35;92754.28;;;4.52;83.17
64602;BME280;51013;42.630;23.192;2022-12-29T17:36:10;93127.78;;;6.97;83.19
64602;BME280;51013;42.630;23.192;2022-12-29T17:38:53;93111.91;;;6.93;81.35
64602;BME280;51013;42.630;23.192;2022-12-29T17:41:35;92909.19;;;5.52;82.10
64602;BME280;51013;42.630;23.192;2022-12-29T17:44:27;92990.84;;;5.89;82.56
64602;BME280;51013;42.630;23.192;2022-12-29T17:47:13;92899.81;;;5.37;82.37
64602;BME280;51013;42.630;23.192;2022-12-29T17:49:49;92986.31;;;5.94;82.65
64602;BME280;51013;42.630;23.192;2022-12-29T17:52:18;92756.28;;;4.41;82.47
64602;BME280;51013;42.630;23.192;2022-12-29T17:54:55;92835.19;;;4.97;82.80
64602;BME280;51013;42.630;23.192;2022-12-29T18:00:31;92830.16;;;4.87;82.90
64602;BME280;51013;42.630;23.192;2022-12-29T18:02:58;93096.31;;;6.66;82.84
64602;BME280;51013;42.630;23.192;2022-12-29T18:05:27;92979.06;;;5.77;83.76
64602;BME280;51013;42.630;23.192;2022-12-29T18:08:11;92966.00;;;5.63;83.65
64602;BME280;51013;42.630;23.192;2022-12-29T18:14:22;93092.34;;;6.54;83.88
64602;BME280;51013;42.630;23.192;2022-12-29T18:16:49;92792.41;;;4.43;83.73
64602;BME280;51013;42.630;23.192;2022-12-29T18:19:16;93055.47;;;6.19;84.21
64602;BME280;51013;42.630;23.192;2022-12-29T18:21:58;93006.69;;;5.92;84.12
64602;BME280;51013;42.630;23.192;2022-12-29T18:24:47;92787.56;;;4.22;85.14
64602;BME280;51013;42.630;23.192;2022-12-29T18:27:15;92758.16;;;4.08;85.18
64602;BME280;51013;42.630;23.192;2022-12-29T18:29:47;92941.97;;;5.39;85.47
64602;BME280;51013;42.630;23.192;2022-12-29T20:28:10;93105.53;;;6.08;88.28
